sensor_id;sensor_type;location;lat;lon;timestamp;P1;durP1;ratioP1;P2;durP2;ratioP2
9821;SDS011;4950;46.042;14.472;2023-01-16T00:01:17;2.00;;;1.63;;
9821;SDS011;4950;46.042;14.472;2023-01-16T00:03:44;1.90;;;1.70;;
9821;SDS011;4950;46.042;14.472;2023-01-16T00:06:11;2.97;;;1.27;;
9821;SDS011;4950;46.042;14.472;2023-01-16T00:08:38;3.22;;;1.35;;
9821;SDS011;4950;46.042;14.472;2023-01-16T00:11:06;1.65;;;1.10;;
9821;SDS011;4950;46.042;14.472;2023-01-16T00:13:33;2.45;;;1.10;;
9821;SDS011;4950;46.042;14.472;2023-01-16T00:15:59;1.23;;;0.80;;
9821;SDS011;4950;46.042;14.472;2023-01-16T00:18:26;2.53;;;1.95;;
9821;SDS011;4950;46.042;14.472;2023-01-16T00:20:52;1.13;;;0.80;;
9821;SDS011;4950;46.042;14.472;2023-01-16T00:23:19;4.88;;;0.90;;
9821;SDS011;4950;46.042;14.472;2023-01-16T00:25:45;1.08;;;0.80;;
9821;SDS011;4950;46.042;14.472;2023-01-16T00:28:13;3.08;;;1.20;;
9821;SDS011;4950;46.042;14.472;2023-01-16T00:30:41;1.52;;;1.02;;
9821;SDS011;4950;46.042;14.472;2023-01-16T00:33:08;0.95;;;0.90;;
9821;SDS011;4950;46.042;14.472;2023-01-16T00:35:35;2.35;;;0.88;;
9821;SDS011;4950;46.042;14.472;2023-01-16T00:38:02;0.85;;;0.82;;
9821;SDS011;4950;46.042;14.472;2023-01-16T00:40:29;1.10;;;0.90;;
9821;SDS011;4950;46.042;14.472;2023-01-16T00:42:55;0.93;;;0.93;;
9821;SDS011;4950;46.042;14.472;2023-01-16T00:45:23;4.13;;;1.55;;
9821;SDS011;4950;46.042;14.472;2023-01-16T00:47:50;2.83;;;1.70;;
9821;SDS011;4950;46.042;14.472;2023-01-16T00:50:16;2.30;;;1.23;;
9821;SDS011;4950;46.042;14.472;2023-01-16T00:52:43;1.55;;;1.13;;
9821;SDS011;4950;46.042;14.472;2023-01-16T00:55:09;1.23;;;1.10;;
9821;SDS011;4950;46.042;14.472;2023-01-16T00:57:36;2.00;;;0.80;;
9821;SDS011;4950;46.042;14.472;2023-01-16T01:00:03;0.63;;;0.60;;
9821;SDS011;4950;46.042;14.472;2023-01-16T01:02:32;1.30;;;0.88;;
9821;SDS011;4950;46.042;14.472;2023-01-16T01:04:59;0.68;;;0.60;;
9821;SDS011;4950;46.042;14.472;2023-01-16T01:07:25;0.93;;;0.63;;
9821;SDS011;4950;46.042;14.472;2023-01-16T01:09:52;0.70;;;0.70;;
9821;SDS011;4950;46.042;14.472;2023-01-16T01:12:19;0.60;;;0.60;;
9821;SDS011;4950;46.042;14.472;2023-01-16T01:14:45;0.63;;;0.63;;
9821;SDS011;4950;46.042;14.472;2023-01-16T01:17:12;0.50;;;0.50;;
9821;SDS011;4950;46.042;14.472;2023-01-16T01:19:40;0.50;;;0.50;;
9821;SDS011;4950;46.042;14.472;2023-01-16T01:22:06;0.57;;;0.50;;
9821;SDS011;4950;46.042;14.472;2023-01-16T01:24:33;0.60;;;0.60;;
9821;SDS011;4950;46.042;14.472;2023-01-16T01:26:59;0.57;;;0.57;;
9821;SDS011;4950;46.042;14.472;2023-01-16T01:29:26;0.70;;;0.70;;
9821;SDS011;4950;46.042;14.472;2023-01-16T01:31:53;1.70;;;1.00;;
9821;SDS011;4950;46.042;14.472;2023-01-16T01:34:19;0.90;;;0.80;;
9821;SDS011;4950;46.042;14.472;2023-01-16T01:36:47;1.25;;;0.80;;
9821;SDS011;4950;46.042;14.472;2023-01-16T01:39:14;1.45;;;1.10;;
9821;SDS011;4950;46.042;14.472;2023-01-16T01:41:40;0.88;;;0.85;;
9821;SDS011;4950;46.042;14.472;2023-01-16T01:47:14;1.25;;;1.15;;
9821;SDS011;4950;46.042;14.472;2023-01-16T01:49:42;2.00;;;1.60;;
9821;SDS011;4950;46.042;14.472;2023-01-16T01:52:10;0.80;;;0.80;;
9821;SDS011;4950;46.042;14.472;2023-01-16T01:54:39;0.70;;;0.70;;
9821;SDS011;4950;46.042;14.472;2023-01-16T01:57:11;0.70;;;0.70;;
9821;SDS011;4950;46.042;14.472;2023-01-16T01:59:42;0.93;;;0.93;;
9821;SDS011;4950;46.042;14.472;2023-01-16T02:02:13;1.30;;;1.20;;
9821;SDS011;4950;46.042;14.472;2023-01-16T02:04:44;1.20;;;1.10;;
9821;SDS011;4950;46.042;14.472;2023-01-16T02:07:15;0.70;;;0.70;;
9821;SDS011;4950;46.042;14.472;2023-01-16T02:09:44;0.85;;;0.85;;
9821;SDS011;4950;46.042;14.472;2023-01-16T02:12:11;1.27;;;1.17;;
9821;SDS011;4950;46.042;14.472;2023-01-16T02:14:40;1.30;;;1.20;;
9821;SDS011;4950;46.042;14.472;2023-01-16T02:17:09;1.30;;;1.20;;
9821;SDS011;4950;46.042;14.472;2023-01-16T02:19:56;2.63;;;2.33;;
9821;SDS011;4950;46.042;14.472;2023-01-16T02:29:10;1.48;;;0.90;;
9821;SDS011;4950;46.042;14.472;2023-01-16T02:31:51;0.98;;;0.80;;
9821;SDS011;4950;46.042;14.472;2023-01-16T02:37:17;0.80;;;0.80;;
9821;SDS011;4950;46.042;14.472;2023-01-16T02:39:55;2.10;;;1.90;;
9821;SDS011;4950;46.042;14.472;2023-01-16T02:42:33;1.48;;;1.38;;
9821;SDS011;4950;46.042;14.472;2023-01-16T02:45:10;1.85;;;1.50;;
9821;SDS011;4950;46.042;14.472;2023-01-16T02:47:45;1.67;;;1.58;;
9821;SDS011;4950;46.042;14.472;2023-01-16T02:50:20;1.00;;;1.00;;
9821;SDS011;4950;46.042;14.472;2023-01-16T02:52:53;1.98;;;1.88;;
9821;SDS011;4950;46.042;14.472;2023-01-16T02:55:26;1.40;;;1.30;;
9821;SDS011;4950;46.042;14.472;2023-01-16T02:58:00;1.38;;;1.20;;
9821;SDS011;4950;46.042;14.472;2023-01-16T03:00:29;0.80;;;0.80;;
9821;SDS011;4950;46.042;14.472;2023-01-16T03:02:58;0.70;;;0.60;;
9821;SDS011;4950;46.042;14.472;2023-01-16T03:05:26;0.80;;;0.73;;
9821;SDS011;4950;46.042;14.472;2023-01-16T03:08:19;1.75;;;0.60;;
9821;SDS011;4950;46.042;14.472;2023-01-16T03:14:02;0.40;;;0.40;;
9821;SDS011;4950;46.042;14.472;2023-01-16T03:16:44;0.47;;;0.47;;
9821;SDS011;4950;46.042;14.472;2023-01-16T03:19:27;1.08;;;0.60;;
9821;SDS011;4950;46.042;14.472;2023-01-16T03:22:09;1.05;;;0.70;;
9821;SDS011;4950;46.042;14.472;2023-01-16T03:24:42;0.75;;;0.70;;
9821;SDS011;4950;46.042;14.472;2023-01-16T03:27:26;0.50;;;0.50;;
9821;SDS011;4950;46.042;14.472;2023-01-16T03:30:08;0.60;;;0.60;;
9821;SDS011;4950;46.042;14.472;2023-01-16T03:32:40;1.15;;;0.60;;
9821;SDS011;4950;46.042;14.472;2023-01-16T03:35:12;1.00;;;1.00;;
9821;SDS011;4950;46.042;14.472;2023-01-16T03:37:43;0.77;;;0.77;;
9821;SDS011;4950;46.042;14.472;2023-01-16T03:40:14;0.82;;;0.82;;
9821;SDS011;4950;46.042;14.472;2023-01-16T03:42:45;0.80;;;0.80;;
9821;SDS011;4950;46.042;14.472;2023-01-16T03:45:19;1.10;;;1.00;;
9821;SDS011;4950;46.042;14.472;2023-01-16T03:47:50;0.52;;;0.52;;
9821;SDS011;4950;46.042;14.472;2023-01-16T03:50:23;0.80;;;0.80;;
9821;SDS011;4950;46.042;14.472;2023-01-16T03:52:54;1.15;;;0.80;;
9821;SDS011;4950;46.042;14.472;2023-01-16T03:55:26;1.08;;;0.93;;
9821;SDS011;4950;46.042;14.472;2023-01-16T03:58:00;0.85;;;0.80;;
9821;SDS011;4950;46.042;14.472;2023-01-16T04:00:31;0.70;;;0.70;;
9821;SDS011;4950;46.042;14.472;2023-01-16T04:03:05;0.70;;;0.70;;
9821;SDS011;4950;46.042;14.472;2023-01-16T04:05:40;0.80;;;0.80;;
9821;SDS011;4950;46.042;14.472;2023-01-16T04:08:14;1.05;;;0.90;;
9821;SDS011;4950;46.042;14.472;2023-01-16T04:10:44;0.80;;;0.77;;
9821;SDS011;4950;46.042;14.472;2023-01-16T04:13:14;0.70;;;0.70;;
9821;SDS011;4950;46.042;14.472;2023-01-16T04:18:11;1.52;;;1.42;;
9821;SDS011;4950;46.042;14.472;2023-01-16T04:20:43;1.83;;;1.63;;
9821;SDS011;4950;46.042;14.472;2023-01-16T04:23:14;2.00;;;1.80;;
9821;SDS011;4950;46.042;14.472;2023-01-16T04:25:41;1.20;;;1.10;;
9821;SDS011;4950;46.042;14.472;2023-01-16T04:28:08;5.13;;;4.50;;
9821;SDS011;4950;46.042;14.472;2023-01-16T04:30:34;3.55;;;3.20;;
9821;SDS011;4950;46.042;14.472;2023-01-16T04:33:01;2.22;;;2.03;;
9821;SDS011;4950;46.042;14.472;2023-01-16T04:35:28;1.15;;;1.05;;
9821;SDS011;4950;46.042;14.472;2023-01-16T04:37:56;1.73;;;1.40;;
9821;SDS011;4950;46.042;14.472;2023-01-16T04:40:23;0.90;;;0.90;;
9821;SDS011;4950;46.042;14.472;2023-01-16T04:42:49;1.40;;;1.15;;
9821;SDS011;4950;46.042;14.472;2023-01-16T04:45:16;5.30;;;4.65;;
9821;SDS011;4950;46.042;14.472;2023-01-16T04:47:44;4.15;;;3.45;;
9821;SDS011;4950;46.042;14.472;2023-01-16T04:50:12;2.47;;;2.00;;
9821;SDS011;4950;46.042;14.472;2023-01-16T04:52:39;1.35;;;1.25;;
9821;SDS011;4950;46.042;14.472;2023-01-16T04:55:08;1.52;;;1.10;;
9821;SDS011;4950;46.042;14.472;2023-01-16T04:57:36;1.92;;;1.40;;
9821;SDS011;4950;46.042;14.472;2023-01-16T05:00:02;7.65;;;3.78;;
9821;SDS011;4950;46.042;14.472;2023-01-16T05:02:31;7.05;;;3.80;;
9821;SDS011;4950;46.042;14.472;2023-01-16T05:04:57;5.95;;;3.55;;
9821;SDS011;4950;46.042;14.472;2023-01-16T05:07:24;8.77;;;4.68;;
9821;SDS011;4950;46.042;14.472;2023-01-16T05:09:51;8.93;;;4.88;;
9821;SDS011;4950;46.042;14.472;2023-01-16T05:12:19;6.63;;;3.63;;
9821;SDS011;4950;46.042;14.472;2023-01-16T05:14:46;6.25;;;3.40;;
9821;SDS011;4950;46.042;14.472;2023-01-16T05:17:13;7.03;;;3.40;;
9821;SDS011;4950;46.042;14.472;2023-01-16T05:19:39;6.97;;;4.00;;
9821;SDS011;4950;46.042;14.472;2023-01-16T05:22:06;7.00;;;4.30;;
9821;SDS011;4950;46.042;14.472;2023-01-16T05:24:33;5.30;;;3.20;;
9821;SDS011;4950;46.042;14.472;2023-01-16T05:26:59;5.95;;;3.20;;
9821;SDS011;4950;46.042;14.472;2023-01-16T05:29:27;3.20;;;2.10;;
9821;SDS011;4950;46.042;14.472;2023-01-16T05:31:54;4.05;;;2.40;;
9821;SDS011;4950;46.042;14.472;2023-01-16T05:34:20;3.60;;;2.10;;
9821;SDS011;4950;46.042;14.472;2023-01-16T05:36:47;5.25;;;2.38;;
9821;SDS011;4950;46.042;14.472;2023-01-16T05:39:13;4.90;;;2.58;;
9821;SDS011;4950;46.042;14.472;2023-01-16T05:41:40;8.20;;;2.58;;
9821;SDS011;4950;46.042;14.472;2023-01-16T05:44:07;2.95;;;2.10;;
9821;SDS011;4950;46.042;14.472;2023-01-16T05:46:35;3.90;;;2.20;;
9821;SDS011;4950;46.042;14.472;2023-01-16T05:49:01;4.72;;;2.15;;
9821;SDS011;4950;46.042;14.472;2023-01-16T05:51:28;5.93;;;2.78;;
9821;SDS011;4950;46.042;14.472;2023-01-16T05:53:54;7.15;;;3.63;;
9821;SDS011;4950;46.042;14.472;2023-01-16T05:56:21;7.25;;;3.97;;
9821;SDS011;4950;46.042;14.472;2023-01-16T05:58:48;5.35;;;3.25;;
9821;SDS011;4950;46.042;14.472;2023-01-16T06:01:15;5.82;;;3.45;;
9821;SDS011;4950;46.042;14.472;2023-01-16T06:03:43;6.75;;;3.63;;
9821;SDS011;4950;46.042;14.472;2023-01-16T06:06:09;4.85;;;2.80;;
9821;SDS011;4950;46.042;14.472;2023-01-16T06:08:36;4.97;;;2.75;;
9821;SDS011;4950;46.042;14.472;2023-01-16T06:11:03;5.68;;;2.85;;
9821;SDS011;4950;46.042;14.472;2023-01-16T06:13:29;4.25;;;2.28;;
9821;SDS011;4950;46.042;14.472;2023-01-16T06:15:56;4.53;;;2.67;;
9821;SDS011;4950;46.042;14.472;2023-01-16T06:18:22;5.28;;;3.03;;
9821;SDS011;4950;46.042;14.472;2023-01-16T06:20:50;5.97;;;3.58;;
9821;SDS011;4950;46.042;14.472;2023-01-16T06:23:17;7.68;;;4.10;;
9821;SDS011;4950;46.042;14.472;2023-01-16T06:25:47;7.55;;;4.53;;
9821;SDS011;4950;46.042;14.472;2023-01-16T06:28:14;7.90;;;4.57;;
9821;SDS011;4950;46.042;14.472;2023-01-16T06:30:41;9.50;;;5.40;;
9821;SDS011;4950;46.042;14.472;2023-01-16T06:33:07;7.18;;;4.53;;
9821;SDS011;4950;46.042;14.472;2023-01-16T06:35:34;8.18;;;4.72;;
9821;SDS011;4950;46.042;14.472;2023-01-16T06:38:02;10.43;;;4.45;;
9821;SDS011;4950;46.042;14.472;2023-01-16T06:40:28;6.57;;;3.90;;
9821;SDS011;4950;46.042;14.472;2023-01-16T06:42:55;9.80;;;4.13;;
9821;SDS011;4950;46.042;14.472;2023-01-16T06:45:21;8.50;;;4.10;;
9821;SDS011;4950;46.042;14.472;2023-01-16T06:47:52;8.30;;;4.43;;
9821;SDS011;4950;46.042;14.472;2023-01-16T06:50:19;11.63;;;4.90;;
9821;SDS011;4950;46.042;14.472;2023-01-16T06:52:46;10.77;;;5.50;;
9821;SDS011;4950;46.042;14.472;2023-01-16T06:55:15;11.00;;;5.57;;
9821;SDS011;4950;46.042;14.472;2023-01-16T06:57:41;9.63;;;5.63;;
9821;SDS011;4950;46.042;14.472;2023-01-16T07:00:08;9.13;;;5.47;;
9821;SDS011;4950;46.042;14.472;2023-01-16T07:02:36;10.70;;;5.93;;
9821;SDS011;4950;46.042;14.472;2023-01-16T07:05:05;10.20;;;6.00;;
9821;SDS011;4950;46.042;14.472;2023-01-16T07:07:33;10.30;;;6.17;;
9821;SDS011;4950;46.042;14.472;2023-01-16T07:09:59;14.70;;;6.47;;
9821;SDS011;4950;46.042;14.472;2023-01-16T07:12:27;10.45;;;6.25;;
9821;SDS011;4950;46.042;14.472;2023-01-16T07:14:54;11.77;;;6.32;;
9821;SDS011;4950;46.042;14.472;2023-01-16T07:17:38;12.45;;;6.03;;
9821;SDS011;4950;46.042;14.472;2023-01-16T07:20:22;11.50;;;5.88;;
9821;SDS011;4950;46.042;14.472;2023-01-16T07:23:11;10.85;;;5.72;;
9821;SDS011;4950;46.042;14.472;2023-01-16T07:25:42;11.25;;;5.80;;
9821;SDS011;4950;46.042;14.472;2023-01-16T07:28:10;11.00;;;6.45;;
9821;SDS011;4950;46.042;14.472;2023-01-16T07:30:36;14.18;;;6.80;;
9821;SDS011;4950;46.042;14.472;2023-01-16T07:33:03;13.70;;;7.18;;
9821;SDS011;4950;46.042;14.472;2023-01-16T07:35:30;14.32;;;7.95;;
9821;SDS011;4950;46.042;14.472;2023-01-16T07:37:56;12.85;;;6.93;;
9821;SDS011;4950;46.042;14.472;2023-01-16T07:40:23;13.60;;;6.55;;
9821;SDS011;4950;46.042;14.472;2023-01-16T07:42:50;12.20;;;6.47;;
9821;SDS011;4950;46.042;14.472;2023-01-16T07:45:18;12.50;;;6.70;;
9821;SDS011;4950;46.042;14.472;2023-01-16T07:47:44;11.73;;;6.25;;
9821;SDS011;4950;46.042;14.472;2023-01-16T07:50:11;15.65;;;7.88;;
9821;SDS011;4950;46.042;14.472;2023-01-16T07:52:38;14.48;;;8.30;;
9821;SDS011;4950;46.042;14.472;2023-01-16T07:55:05;16.48;;;8.43;;
9821;SDS011;4950;46.042;14.472;2023-01-16T07:57:31;13.13;;;7.60;;
9821;SDS011;4950;46.042;14.472;2023-01-16T08:00:01;12.40;;;7.97;;
9821;SDS011;4950;46.042;14.472;2023-01-16T08:02:30;14.98;;;8.32;;
9821;SDS011;4950;46.042;14.472;2023-01-16T08:04:56;14.43;;;7.50;;
9821;SDS011;4950;46.042;14.472;2023-01-16T08:07:23;14.88;;;8.23;;
9821;SDS011;4950;46.042;14.472;2023-01-16T08:09:49;13.38;;;7.95;;
9821;SDS011;4950;46.042;14.472;2023-01-16T08:12:16;16.60;;;10.23;;
9821;SDS011;4950;46.042;14.472;2023-01-16T08:14:42;14.88;;;9.25;;
9821;SDS011;4950;46.042;14.472;2023-01-16T08:17:09;16.58;;;10.38;;
9821;SDS011;4950;46.042;14.472;2023-01-16T08:19:37;23.98;;;13.32;;
9821;SDS011;4950;46.042;14.472;2023-01-16T08:22:03;19.25;;;11.57;;
9821;SDS011;4950;46.042;14.472;2023-01-16T08:24:30;16.92;;;10.50;;
9821;SDS011;4950;46.042;14.472;2023-01-16T08:26:57;12.27;;;7.47;;
9821;SDS011;4950;46.042;14.472;2023-01-16T08:29:23;14.93;;;8.10;;
9821;SDS011;4950;46.042;14.472;2023-01-16T08:31:51;16.52;;;8.45;;
9821;SDS011;4950;46.042;14.472;2023-01-16T08:34:17;16.00;;;8.95;;
9821;SDS011;4950;46.042;14.472;2023-01-16T08:36:45;14.27;;;9.13;;
9821;SDS011;4950;46.042;14.472;2023-01-16T08:39:12;13.73;;;8.40;;
9821;SDS011;4950;46.042;14.472;2023-01-16T08:41:38;12.90;;;7.90;;
9821;SDS011;4950;46.042;14.472;2023-01-16T08:44:23;12.98;;;7.53;;
9821;SDS011;4950;46.042;14.472;2023-01-16T08:47:08;12.60;;;8.20;;
9821;SDS011;4950;46.042;14.472;2023-01-16T08:49:55;16.45;;;9.68;;
9821;SDS011;4950;46.042;14.472;2023-01-16T08:52:46;12.55;;;8.60;;
9821;SDS011;4950;46.042;14.472;2023-01-16T08:55:13;13.70;;;9.23;;
9821;SDS011;4950;46.042;14.472;2023-01-16T08:57:40;14.65;;;8.55;;
9821;SDS011;4950;46.042;14.472;2023-01-16T09:00:07;13.07;;;8.88;;
9821;SDS011;4950;46.042;14.472;2023-01-16T09:02:35;11.63;;;7.50;;
9821;SDS011;4950;46.042;14.472;2023-01-16T09:05:03;11.32;;;6.95;;
9821;SDS011;4950;46.042;14.472;2023-01-16T09:07:30;12.13;;;7.78;;
9821;SDS011;4950;46.042;14.472;2023-01-16T09:09:58;9.80;;;6.38;;
9821;SDS011;4950;46.042;14.472;2023-01-16T09:12:26;9.93;;;6.03;;
9821;SDS011;4950;46.042;14.472;2023-01-16T09:15:10;14.15;;;7.32;;
9821;SDS011;4950;46.042;14.472;2023-01-16T09:17:37;12.02;;;7.00;;
9821;SDS011;4950;46.042;14.472;2023-01-16T09:20:04;10.77;;;6.65;;
9821;SDS011;4950;46.042;14.472;2023-01-16T09:22:31;10.38;;;6.28;;
9821;SDS011;4950;46.042;14.472;2023-01-16T09:25:00;10.32;;;6.95;;
9821;SDS011;4950;46.042;14.472;2023-01-16T09:27:26;12.63;;;8.35;;
9821;SDS011;4950;46.042;14.472;2023-01-16T09:29:53;13.43;;;9.13;;
9821;SDS011;4950;46.042;14.472;2023-01-16T09:32:20;12.32;;;8.73;;
9821;SDS011;4950;46.042;14.472;2023-01-16T09:34:47;11.80;;;7.47;;
9821;SDS011;4950;46.042;14.472;2023-01-16T09:37:14;11.35;;;7.68;;
9821;SDS011;4950;46.042;14.472;2023-01-16T09:39:41;9.57;;;5.90;;
9821;SDS011;4950;46.042;14.472;2023-01-16T09:45:27;9.82;;;6.13;;
9821;SDS011;4950;46.042;14.472;2023-01-16T09:47:57;8.65;;;5.30;;
9821;SDS011;4950;46.042;14.472;2023-01-16T09:50:30;9.60;;;5.95;;
9821;SDS011;4950;46.042;14.472;2023-01-16T09:53:02;9.25;;;6.05;;
9821;SDS011;4950;46.042;14.472;2023-01-16T09:55:49;9.45;;;5.50;;
9821;SDS011;4950;46.042;14.472;2023-01-16T09:58:38;9.85;;;5.15;;
9821;SDS011;4950;46.042;14.472;2023-01-16T10:01:10;8.82;;;5.38;;
9821;SDS011;4950;46.042;14.472;2023-01-16T10:03:40;7.90;;;5.15;;
9821;SDS011;4950;46.042;14.472;2023-01-16T10:06:13;8.23;;;5.13;;
9821;SDS011;4950;46.042;14.472;2023-01-16T10:08:54;10.30;;;5.70;;
9821;SDS011;4950;46.042;14.472;2023-01-16T10:11:29;7.97;;;5.30;;
9821;SDS011;4950;46.042;14.472;2023-01-16T10:14:07;9.80;;;5.95;;
9821;SDS011;4950;46.042;14.472;2023-01-16T10:16:46;9.30;;;5.85;;
9821;SDS011;4950;46.042;14.472;2023-01-16T10:19:24;10.60;;;7.57;;
9821;SDS011;4950;46.042;14.472;2023-01-16T10:22:11;14.63;;;9.50;;
9821;SDS011;4950;46.042;14.472;2023-01-16T10:24:51;11.43;;;7.40;;
9821;SDS011;4950;46.042;14.472;2023-01-16T10:27:28;16.67;;;9.75;;
9821;SDS011;4950;46.042;14.472;2023-01-16T10:30:07;11.57;;;7.00;;
9821;SDS011;4950;46.042;14.472;2023-01-16T10:32:39;12.77;;;6.20;;
9821;SDS011;4950;46.042;14.472;2023-01-16T10:35:13;11.18;;;6.43;;
9821;SDS011;4950;46.042;14.472;2023-01-16T10:37:45;13.57;;;6.70;;
9821;SDS011;4950;46.042;14.472;2023-01-16T10:40:13;12.70;;;6.90;;
9821;SDS011;4950;46.042;14.472;2023-01-16T10:42:43;13.15;;;7.43;;
9821;SDS011;4950;46.042;14.472;2023-01-16T10:45:33;16.10;;;8.30;;
9821;SDS011;4950;46.042;14.472;2023-01-16T10:48:19;16.85;;;9.23;;
9821;SDS011;4950;46.042;14.472;2023-01-16T10:51:04;15.15;;;9.50;;
9821;SDS011;4950;46.042;14.472;2023-01-16T10:53:32;17.67;;;9.07;;
9821;SDS011;4950;46.042;14.472;2023-01-16T10:56:01;15.25;;;9.10;;
9821;SDS011;4950;46.042;14.472;2023-01-16T10:58:30;15.93;;;8.70;;
9821;SDS011;4950;46.042;14.472;2023-01-16T11:01:01;16.15;;;8.48;;
9821;SDS011;4950;46.042;14.472;2023-01-16T11:03:34;12.40;;;8.32;;
9821;SDS011;4950;46.042;14.472;2023-01-16T11:06:06;13.98;;;8.05;;
9821;SDS011;4950;46.042;14.472;2023-01-16T11:08:34;11.63;;;7.55;;
9821;SDS011;4950;46.042;14.472;2023-01-16T11:11:01;12.05;;;7.85;;
9821;SDS011;4950;46.042;14.472;2023-01-16T11:13:28;12.98;;;7.10;;
9821;SDS011;4950;46.042;14.472;2023-01-16T11:16:19;10.95;;;6.45;;
9821;SDS011;4950;46.042;14.472;2023-01-16T11:19:17;11.35;;;7.22;;
9821;SDS011;4950;46.042;14.472;2023-01-16T11:21:48;16.52;;;8.85;;
9821;SDS011;4950;46.042;14.472;2023-01-16T11:24:18;15.40;;;8.55;;
9821;SDS011;4950;46.042;14.472;2023-01-16T11:26:47;14.35;;;9.95;;
9821;SDS011;4950;46.042;14.472;2023-01-16T11:29:16;15.82;;;11.15;;
9821;SDS011;4950;46.042;14.472;2023-01-16T11:31:48;17.10;;;10.30;;
9821;SDS011;4950;46.042;14.472;2023-01-16T11:34:20;23.73;;;12.00;;
9821;SDS011;4950;46.042;14.472;2023-01-16T11:36:51;22.92;;;10.82;;
9821;SDS011;4950;46.042;14.472;2023-01-16T11:41:49;17.75;;;11.27;;
9821;SDS011;4950;46.042;14.472;2023-01-16T11:44:18;14.55;;;8.88;;
9821;SDS011;4950;46.042;14.472;2023-01-16T11:47:06;17.40;;;9.43;;
9821;SDS011;4950;46.042;14.472;2023-01-16T11:49:38;15.68;;;7.72;;
9821;SDS011;4950;46.042;14.472;2023-01-16T11:52:10;11.02;;;6.28;;
9821;SDS011;4950;46.042;14.472;2023-01-16T11:54:52;13.70;;;7.03;;
9821;SDS011;4950;46.042;14.472;2023-01-16T11:57:31;10.65;;;5.80;;
9821;SDS011;4950;46.042;14.472;2023-01-16T12:00:17;13.57;;;7.47;;
9821;SDS011;4950;46.042;14.472;2023-01-16T12:03:03;12.90;;;8.45;;
9821;SDS011;4950;46.042;14.472;2023-01-16T12:05:56;10.05;;;6.38;;
9821;SDS011;4950;46.042;14.472;2023-01-16T12:08:43;11.88;;;6.75;;
9821;SDS011;4950;46.042;14.472;2023-01-16T12:11:24;12.95;;;7.15;;
9821;SDS011;4950;46.042;14.472;2023-01-16T12:14:04;15.20;;;8.23;;
9821;SDS011;4950;46.042;14.472;2023-01-16T12:16:49;12.18;;;7.95;;
9821;SDS011;4950;46.042;14.472;2023-01-16T12:19:37;14.80;;;7.53;;
9821;SDS011;4950;46.042;14.472;2023-01-16T12:22:17;13.85;;;8.23;;
9821;SDS011;4950;46.042;14.472;2023-01-16T12:24:52;13.35;;;9.02;;
9821;SDS011;4950;46.042;14.472;2023-01-16T12:27:31;14.75;;;8.25;;
9821;SDS011;4950;46.042;14.472;2023-01-16T12:30:08;11.20;;;7.20;;
9821;SDS011;4950;46.042;14.472;2023-01-16T12:32:50;15.05;;;9.75;;
9821;SDS011;4950;46.042;14.472;2023-01-16T12:35:36;18.75;;;13.68;;
9821;SDS011;4950;46.042;14.472;2023-01-16T12:38:12;19.08;;;12.85;;
9821;SDS011;4950;46.042;14.472;2023-01-16T12:40:48;16.10;;;10.55;;
9821;SDS011;4950;46.042;14.472;2023-01-16T12:43:42;15.93;;;9.70;;
9821;SDS011;4950;46.042;14.472;2023-01-16T12:46:18;13.82;;;9.10;;
9821;SDS011;4950;46.042;14.472;2023-01-16T12:48:57;14.57;;;8.40;;
9821;SDS011;4950;46.042;14.472;2023-01-16T12:51:38;17.02;;;9.43;;
9821;SDS011;4950;46.042;14.472;2023-01-16T12:54:22;13.52;;;9.00;;
9821;SDS011;4950;46.042;14.472;2023-01-16T12:57:06;13.15;;;8.57;;
9821;SDS011;4950;46.042;14.472;2023-01-16T12:59:45;14.18;;;8.40;;
9821;SDS011;4950;46.042;14.472;2023-01-16T13:02:18;14.90;;;9.55;;
9821;SDS011;4950;46.042;14.472;2023-01-16T13:04:51;14.30;;;8.45;;
9821;SDS011;4950;46.042;14.472;2023-01-16T13:07:25;11.68;;;7.93;;
9821;SDS011;4950;46.042;14.472;2023-01-16T13:09:56;12.43;;;8.63;;
9821;SDS011;4950;46.042;14.472;2023-01-16T13:12:43;13.82;;;9.13;;
9821;SDS011;4950;46.042;14.472;2023-01-16T13:15:28;17.27;;;11.13;;
9821;SDS011;4950;46.042;14.472;2023-01-16T13:18:00;16.52;;;10.20;;
9821;SDS011;4950;46.042;14.472;2023-01-16T13:20:31;22.35;;;12.55;;
9821;SDS011;4950;46.042;14.472;2023-01-16T13:23:00;18.27;;;10.30;;
9821;SDS011;4950;46.042;14.472;2023-01-16T13:25:30;19.30;;;11.43;;
9821;SDS011;4950;46.042;14.472;2023-01-16T13:28:02;16.50;;;10.80;;
9821;SDS011;4950;46.042;14.472;2023-01-16T13:30:33;20.50;;;11.85;;
9821;SDS011;4950;46.042;14.472;2023-01-16T13:33:01;21.23;;;12.73;;
9821;SDS011;4950;46.042;14.472;2023-01-16T13:35:31;21.88;;;13.00;;
9821;SDS011;4950;46.042;14.472;2023-01-16T13:41:12;22.52;;;13.10;;
9821;SDS011;4950;46.042;14.472;2023-01-16T13:43:43;22.63;;;12.38;;
9821;SDS011;4950;46.042;14.472;2023-01-16T13:46:33;23.75;;;14.13;;
9821;SDS011;4950;46.042;14.472;2023-01-16T13:49:01;24.70;;;14.57;;
9821;SDS011;4950;46.042;14.472;2023-01-16T13:51:31;22.60;;;13.30;;
9821;SDS011;4950;46.042;14.472;2023-01-16T13:54:10;24.40;;;14.10;;
9821;SDS011;4950;46.042;14.472;2023-01-16T13:56:41;25.40;;;13.93;;
9821;SDS011;4950;46.042;14.472;2023-01-16T13:59:08;25.60;;;14.82;;
9821;SDS011;4950;46.042;14.472;2023-01-16T14:01:55;28.77;;;15.73;;
9821;SDS011;4950;46.042;14.472;2023-01-16T14:04:27;21.70;;;13.53;;
9821;SDS011;4950;46.042;14.472;2023-01-16T14:06:56;23.25;;;14.43;;
9821;SDS011;4950;46.042;14.472;2023-01-16T14:15:49;20.83;;;12.77;;
9821;SDS011;4950;46.042;14.472;2023-01-16T14:18:36;15.45;;;9.50;;
9821;SDS011;4950;46.042;14.472;2023-01-16T14:21:04;17.00;;;10.07;;
9821;SDS011;4950;46.042;14.472;2023-01-16T14:23:37;15.95;;;9.15;;
9821;SDS011;4950;46.042;14.472;2023-01-16T14:26:25;16.02;;;9.93;;
9821;SDS011;4950;46.042;14.472;2023-01-16T14:29:01;18.70;;;11.88;;
9821;SDS011;4950;46.042;14.472;2023-01-16T14:31:35;21.85;;;12.35;;
9821;SDS011;4950;46.042;14.472;2023-01-16T14:34:04;20.25;;;11.50;;
9821;SDS011;4950;46.042;14.472;2023-01-16T14:36:37;21.67;;;14.45;;
9821;SDS011;4950;46.042;14.472;2023-01-16T14:39:03;21.52;;;13.15;;
9821;SDS011;4950;46.042;14.472;2023-01-16T14:41:32;30.60;;;13.60;;
9821;SDS011;4950;46.042;14.472;2023-01-16T14:44:17;23.77;;;13.52;;
9821;SDS011;4950;46.042;14.472;2023-01-16T14:47:10;29.02;;;14.90;;
9821;SDS011;4950;46.042;14.472;2023-01-16T14:50:07;23.02;;;12.60;;
9821;SDS011;4950;46.042;14.472;2023-01-16T14:56:04;27.20;;;14.88;;
9821;SDS011;4950;46.042;14.472;2023-01-16T14:58:41;23.85;;;13.25;;
9821;SDS011;4950;46.042;14.472;2023-01-16T15:01:16;29.63;;;15.48;;
9821;SDS011;4950;46.042;14.472;2023-01-16T15:04:04;22.75;;;14.30;;
9821;SDS011;4950;46.042;14.472;2023-01-16T15:06:33;27.98;;;14.95;;
9821;SDS011;4950;46.042;14.472;2023-01-16T15:09:03;29.40;;;16.88;;
9821;SDS011;4950;46.042;14.472;2023-01-16T15:11:31;30.50;;;18.17;;
9821;SDS011;4950;46.042;14.472;2023-01-16T15:14:12;28.30;;;16.50;;
9821;SDS011;4950;46.042;14.472;2023-01-16T15:16:54;28.95;;;17.77;;
9821;SDS011;4950;46.042;14.472;2023-01-16T15:22:54;32.85;;;17.00;;
9821;SDS011;4950;46.042;14.472;2023-01-16T15:25:28;27.63;;;16.05;;
9821;SDS011;4950;46.042;14.472;2023-01-16T15:28:11;30.58;;;17.40;;
9821;SDS011;4950;46.042;14.472;2023-01-16T15:30:46;29.88;;;16.60;;
9821;SDS011;4950;46.042;14.472;2023-01-16T15:33:23;34.17;;;18.25;;
9821;SDS011;4950;46.042;14.472;2023-01-16T15:36:13;36.60;;;17.50;;
9821;SDS011;4950;46.042;14.472;2023-01-16T15:38:46;31.38;;;17.45;;
9821;SDS011;4950;46.042;14.472;2023-01-16T15:41:14;37.70;;;19.33;;
9821;SDS011;4950;46.042;14.472;2023-01-16T15:43:44;35.38;;;19.02;;
9821;SDS011;4950;46.042;14.472;2023-01-16T15:46:31;30.63;;;17.40;;
9821;SDS011;4950;46.042;14.472;2023-01-16T15:49:24;35.17;;;16.10;;
9821;SDS011;4950;46.042;14.472;2023-01-16T15:51:56;24.92;;;14.63;;
9821;SDS011;4950;46.042;14.472;2023-01-16T15:54:24;19.45;;;12.55;;
9821;SDS011;4950;46.042;14.472;2023-01-16T15:56:52;20.65;;;11.90;;
9821;SDS011;4950;46.042;14.472;2023-01-16T15:59:20;31.92;;;16.88;;